Weather History for KRSV - February, 2012

Change the Weather History Date:

Saturday, February 18, 2012

  Actual Average (KLWV) Record (KLWV)
Temperature  
Mean Temperature 37 °F 36 °F  
Max Temperature 45 °F 45 °F 64 °F (1997)
Min Temperature 29 °F 28 °F -5 °F (1993)
Degree Days  
Heating Degree Days 28 29  
Month to date heating degree days 557  
Since 1 July heating degree days 3408  
Cooling Degree Days 0 0  
Month to date cooling degree days 0  
Year to date cooling degree days 0  
Moisture  
Dew Point 27 °F    
Average Humidity 67    
Maximum Humidity 90    
Minimum Humidity 48    
Precipitation  
Precipitation 0.00 in 0.07 in 1.29 in (2000)
Month to date precipitation 1.37  
Year to date precipitation 3.75  
Sea Level Pressure  
Sea Level Pressure 30.13 in    
Wind  
Wind Speed 5 mph (NNW)    
Max Wind Speed 15 mph    
Max Gust Speed 21 mph    
Visibility 10 miles    
Events      
T = Trace of Precipitation, MM = Missing Value Source: NWS Daily Summary

Daily Weather History Graph

Daily Weather History Graph

Search for Another Location

Airport or City:

Trip Planner

Search our weather history database for the weather conditions in past years. The results will help you decide how hot, cold, wet, or windy it might be!

Date:

Astronomy

Feb. 18, 2012 Rise Set
Actual Time 6:38 AM CST 5:30 PM CST
Civil Twilight 6:11 AM CST 5:58 PM CST
Nautical Twilight 5:40 AM CST 6:29 PM CST
Astronomical Twilight 5:09 AM CST 7:00 PM CST
Moon 4:16 AM CST (2/18) 2:28 PM CST (2/18)
Length of Visible Light 11h 46m
Length of Day
10h 51m
Waning Crescent, 11% of the Moon is Illuminated
Feb 18
Waning Crescent
Feb 21
New
Feb 29
First Quarter
Mar 8
Full
Mar 14
Last Quarter

Hourly Weather History & Observations

Time (CST) Temp. Windchill Dew Point Humidity Pressure Visibility Wind Dir Wind Speed Gust Speed Precip Events Conditions
12:15 AM 29.5 °F - 27.0 °F 90% 30.11 in 10.0 mi Calm Calm - N/A   Clear
12:35 AM 30.4 °F - 27.7 °F 90% 30.11 in 10.0 mi Calm Calm - N/A   Clear
12:55 AM 31.1 °F - 27.5 °F 87% 30.11 in 10.0 mi Calm Calm - N/A   Clear
1:15 AM 31.8 °F - 27.5 °F 84% 30.11 in 10.0 mi Calm Calm - N/A   Clear
1:35 AM 33.3 °F - 28.2 °F 82% 30.11 in 10.0 mi Calm Calm - N/A   Clear
1:55 AM 34.2 °F - 28.2 °F 79% 30.11 in 10.0 mi Calm Calm - N/A   Clear
2:15 AM 36.1 °F 32.3 °F 28.9 °F 75% 30.10 in 10.0 mi South 4.6 mph - N/A   Clear
2:35 AM 34.7 °F - 28.2 °F 77% 30.09 in 10.0 mi Calm Calm - N/A   Clear
2:55 AM 37.2 °F 34.7 °F 28.9 °F 72% 30.09 in 10.0 mi SW 3.5 mph - N/A   Clear
3:15 AM 36.3 °F - 28.6 °F 74% 30.09 in 10.0 mi Calm Calm - N/A   Clear
3:35 AM 35.1 °F 30.1 °F 28.9 °F 78% 30.09 in 10.0 mi WSW 5.8 mph - N/A   Clear
3:55 AM 34.7 °F 29.6 °F 29.1 °F 80% 30.09 in 10.0 mi WSW 5.8 mph - N/A   Clear
4:35 AM 34.0 °F 31.0 °F 28.6 °F 81% 30.10 in 10.0 mi WNW 3.5 mph - N/A   Clear
4:55 AM 33.8 °F 28.6 °F 28.8 °F 82% 30.10 in 10.0 mi WNW 5.8 mph - N/A   Clear
5:15 AM 35.1 °F 30.1 °F 29.3 °F 80% 30.10 in 10.0 mi NW 5.8 mph - N/A   Clear
5:35 AM 34.9 °F 30.8 °F 29.1 °F 79% 30.11 in 10.0 mi NW 4.6 mph - N/A   Scattered Clouds
6:15 AM 33.8 °F 29.6 °F 28.4 °F 81% 30.13 in 10.0 mi NW 4.6 mph - N/A   Clear
6:35 AM 32.9 °F 29.8 °F 28.2 °F 83% 30.14 in 10.0 mi NW 3.5 mph - N/A   Clear
7:35 AM 34.3 °F 31.4 °F 29.3 °F 82% 30.14 in 10.0 mi NW 3.5 mph - N/A   Clear
7:55 AM 35.6 °F 31.7 °F 30.0 °F 80% 30.15 in 10.0 mi NW 4.6 mph - N/A   Clear
8:15 AM 36.7 °F 32.0 °F 30.4 °F 78% 30.16 in 10.0 mi NNW 5.8 mph - N/A   Clear
8:35 AM 37.4 °F 32.1 °F 29.5 °F 73% 30.15 in 10.0 mi NNW 6.9 mph - N/A   Clear
8:55 AM 38.7 °F 32.9 °F 30.0 °F 71% 30.15 in 10.0 mi NW 8.1 mph - N/A   Clear
9:35 AM 40.3 °F 35.5 °F 29.5 °F 65% 30.17 in 10.0 mi North 6.9 mph - N/A   Clear
9:55 AM 41.5 °F 37.1 °F 29.1 °F 61% 30.17 in 10.0 mi North 6.9 mph - N/A   Clear
10:15 AM 42.1 °F 36.6 °F 28.4 °F 58% 30.17 in 10.0 mi North 9.2 mph - N/A   Clear
10:35 AM 43.0 °F 36.4 °F 28.6 °F 57% 30.16 in 10.0 mi North 12.7 mph - N/A   Clear
10:55 AM 43.0 °F 35.7 °F 25.7 °F 51% 30.16 in 10.0 mi North 15.0 mph - N/A   Clear
11:15 AM 43.0 °F 35.7 °F 24.3 °F 48% 30.17 in 10.0 mi North 15.0 mph - N/A   Clear
11:35 AM 43.2 °F 36.6 °F 26.4 °F 52% 30.17 in 10.0 mi North 12.7 mph 17.3 mph N/A   Clear
11:55 AM 43.7 °F 37.7 °F 26.2 °F 50% 30.16 in 10.0 mi North 11.5 mph 17.3 mph N/A   Clear
12:15 PM 44.4 °F 38.6 °F 26.2 °F 49% 30.15 in 10.0 mi NNW 11.5 mph 20.7 mph N/A   Clear
12:35 PM 43.9 °F 38.8 °F 26.2 °F 50% 30.14 in 10.0 mi North 9.2 mph 17.3 mph N/A   Clear
12:55 PM 45.0 °F 40.1 °F 27.5 °F 50% 30.14 in 10.0 mi North 9.2 mph - N/A   Clear
1:15 PM 45.5 °F 40.3 °F 27.1 °F 49% 30.14 in 10.0 mi North 10.4 mph 17.3 mph N/A   Clear
1:35 PM 45.0 °F 40.1 °F 27.1 °F 50% 30.14 in 10.0 mi North 9.2 mph - N/A   Clear
1:55 PM 44.8 °F 39.0 °F 28.0 °F 52% 30.14 in 10.0 mi NNW 11.5 mph - N/A   Clear
2:15 PM 44.6 °F 40.2 °F 27.9 °F 52% 30.14 in 10.0 mi North 8.1 mph - N/A   Clear
2:55 PM 44.8 °F 39.9 °F 26.8 °F 49% 30.13 in 10.0 mi NNW 9.2 mph - N/A   Clear
3:15 PM 44.6 °F 39.2 °F 27.5 °F 51% 30.12 in 10.0 mi NNW 10.4 mph - N/A   Clear
3:35 PM 44.4 °F 39.0 °F 27.5 °F 52% 30.12 in 10.0 mi North 10.4 mph - N/A   Clear
3:55 PM 44.2 °F 38.8 °F 25.7 °F 48% 30.12 in 10.0 mi North 10.4 mph - N/A   Clear
4:15 PM 43.7 °F 38.1 °F 26.4 °F 51% 30.12 in 10.0 mi North 10.4 mph - N/A   Clear
4:35 PM 43.2 °F 38.4 °F 27.3 °F 54% 30.11 in 10.0 mi North 8.1 mph - N/A   Clear
4:55 PM 42.1 °F 36.1 °F 26.1 °F 53% 30.13 in 10.0 mi NNE 10.4 mph - N/A   Clear
5:15 PM 41.2 °F 36.0 °F 25.9 °F 55% 30.13 in 10.0 mi NNE 8.1 mph - N/A   Clear
5:35 PM 40.1 °F 34.7 °F 27.1 °F 60% 30.14 in 10.0 mi NNE 8.1 mph - N/A   Clear
6:35 PM 37.2 °F 31.2 °F 26.4 °F 65% 30.14 in 10.0 mi NNE 8.1 mph - N/A   Clear
6:55 PM 36.7 °F 29.9 °F 26.2 °F 66% 30.14 in 10.0 mi North 9.2 mph - N/A   Clear
7:15 PM 36.1 °F 28.7 °F 26.1 °F 67% 30.13 in 10.0 mi North 10.4 mph - N/A   Clear
7:35 PM 36.1 °F 29.3 °F 25.7 °F 66% 30.13 in 10.0 mi North 9.2 mph - N/A   Clear
7:55 PM 34.7 °F 28.1 °F 25.7 °F 70% 30.14 in 10.0 mi North 8.1 mph - N/A   Clear
8:15 PM 33.8 °F 27.7 °F 25.7 °F 72% 30.14 in 10.0 mi North 6.9 mph - N/A   Clear
8:35 PM 33.8 °F 27.0 °F 25.7 °F 72% 30.14 in 10.0 mi North 8.1 mph - N/A   Clear
8:55 PM 33.8 °F 27.0 °F 25.5 °F 72% 30.15 in 10.0 mi North 8.1 mph - N/A   Clear
9:15 PM 33.3 °F 26.4 °F 25.5 °F 73% 30.14 in 10.0 mi North 8.1 mph - N/A   Clear
9:35 PM 33.3 °F 25.7 °F 25.5 °F 73% 30.14 in 10.0 mi North 9.2 mph - N/A   Clear
9:55 PM 33.1 °F 24.9 °F 25.5 °F 74% 30.14 in 10.0 mi North 10.4 mph - N/A   Clear
10:15 PM 32.7 °F 25.0 °F 25.2 °F 74% 30.15 in 10.0 mi North 9.2 mph - N/A   Clear
10:55 PM 32.5 °F 25.5 °F 24.8 °F 73% 30.15 in 10.0 mi North 8.1 mph - N/A   Clear
11:15 PM 32.2 °F 24.4 °F 24.4 °F 73% 30.14 in 10.0 mi North 9.2 mph - N/A   Clear
11:35 PM 32.0 °F 24.2 °F 24.1 °F 73% 30.14 in 10.0 mi North 9.2 mph - N/A   Clear
11:55 PM 32.0 °F 23.6 °F 23.7 °F 71% 30.13 in 10.0 mi North 10.4 mph - N/A   Clear